Time;durP1;ratioP1;P1;durP2;ratioP2;P2;SDS_P1;SDS_P2;PMS_P1;PMS_P2;Temp;Humidity;BMP_temperature;BMP_pressure;BME280_temperature;BME280_humidity;BME280_pressure;Samples;Min_cycle;Max_cycle;Signal;HPM_P1;HPM_P2
2021/04/16 00:00:10;;;;;;;7.92;5.67;;;;;;;28.60;35.75;158682.00;1802069;78;21868;-72
2021/04/16 00:02:44;;;;;;;6.95;5.55;;;;;;;28.63;35.77;158688.69;1793122;78;21406;-71
2021/04/16 00:05:17;;;;;;;7.80;6.00;;;;;;;28.68;35.75;158703.33;1798172;78;21724;-72
2021/04/16 00:07:50;;;;;;;7.92;5.75;;;;;;;28.71;35.69;158711.28;1824824;78;21859;-71
2021/04/16 00:10:33;;;;;;;8.05;5.90;;;;;;;28.67;35.76;158700.66;1825612;78;21328;-71
2021/04/16 00:13:07;;;;;;;7.65;5.47;;;;;;;28.72;35.77;158712.62;1812356;78;21157;-70
2021/04/16 00:15:40;;;;;;;8.23;5.78;;;;;;;28.76;35.73;158724.61;1823255;78;21363;-72
2021/04/16 00:18:15;;;;;;;8.00;5.65;;;;;;;28.76;35.75;158723.31;1808324;78;21312;-71
2021/04/16 00:20:48;;;;;;;7.10;5.60;;;;;;;28.72;35.81;158713.94;1821579;78;21514;-72
2021/04/16 00:23:21;;;;;;;8.20;5.67;;;;;;;28.70;35.86;158708.61;1795858;78;21218;-70
2021/04/16 00:25:53;;;;;;;8.43;5.78;;;;;;;28.77;35.78;158727.28;1768660;81;21305;-71
2021/04/16 00:28:27;;;;;;;10.45;6.28;;;;;;;28.77;35.79;158727.28;1772665;80;21324;-71
2021/04/16 00:31:07;;;;;;;8.93;6.83;;;;;;;28.80;35.80;158733.92;1773212;80;21253;-72
2021/04/16 00:33:40;;;;;;;6.25;5.17;;;;;;;28.87;35.73;158752.62;1783772;80;21819;-71
2021/04/16 00:36:13;;;;;;;7.75;6.12;;;;;;;28.91;35.74;158764.61;1770612;80;21280;-70
2021/04/16 00:38:46;;;;;;;7.22;5.10;;;;;;;28.95;35.74;158775.22;1771211;81;21326;-70
2021/04/16 00:41:22;;;;;;;8.80;5.70;;;;;;;29.03;35.66;158796.56;1750545;81;21155;-71
2021/04/16 00:43:54;;;;;;;9.45;5.55;;;;;;;29.03;35.65;158796.56;1781281;80;21508;-71
2021/04/16 00:46:49;;;;;;;10.30;6.28;;;;;;;29.09;35.59;158812.50;1754819;81;21176;-72
2021/04/16 00:49:30;;;;;;;9.10;5.72;;;;;;;29.14;35.57;158824.48;1728929;82;21391;-71
2021/04/16 00:52:03;;;;;;;7.30;5.62;;;;;;;29.22;35.53;158845.83;1727686;82;21262;-71
2021/04/16 00:54:38;;;;;;;7.85;5.58;;;;;;;29.22;35.55;158847.13;1712566;83;21235;-72
2021/04/16 00:57:13;;;;;;;7.30;5.95;;;;;;;29.29;35.51;158864.44;1760347;81;21180;-72
2021/04/16 00:59:58;;;;;;;8.40;6.30;;;;;;;29.36;35.47;158884.42;1760567;81;21223;-72
2021/04/16 01:02:30;;;;;;;7.72;5.40;;;;;;;29.41;35.40;158897.77;1759628;81;21310;-72
2021/04/16 01:05:03;;;;;;;8.48;6.00;;;;;;;29.44;35.43;158907.13;1751366;81;21820;-71
2021/04/16 01:07:36;;;;;;;7.58;6.10;;;;;;;29.51;35.43;158924.44;1722139;82;21521;-72
2021/04/16 01:10:09;;;;;;;8.55;6.03;;;;;;;29.56;35.39;158937.72;1707338;84;21317;-72
2021/04/16 01:12:42;;;;;;;8.13;6.62;;;;;;;29.59;35.32;158945.73;1713080;82;21214;-71
2021/04/16 01:15:29;;;;;;;8.68;6.45;;;;;;;29.51;35.25;158925.75;1721503;82;21171;-71
2021/04/16 01:22:19;;;;;;;9.13;6.50;;;;;;;29.27;35.50;158860.47;1739951;81;21312;-71
2021/04/16 01:24:51;;;;;;;9.15;6.60;;;;;;;29.06;35.80;158804.50;1756863;81;21286;-72
2021/04/16 01:27:26;;;;;;;9.68;6.90;;;;;;;29.09;35.83;158812.50;1760240;81;21769;-71
2021/04/16 01:30:10;;;;;;;7.53;5.72;;;;;;;29.10;35.76;158815.17;1702581;82;21223;-71
2021/04/16 01:32:43;;;;;;;11.10;6.40;;;;;;;29.12;35.74;158820.50;1698828;82;21171;-71
2021/04/16 01:35:21;;;;;;;12.45;6.03;;;;;;;29.03;35.64;158795.20;1733205;82;21214;-71
2021/04/16 01:37:54;;;;;;;8.63;5.60;;;;;;;28.89;35.78;158757.92;1736050;82;21195;-72
2021/04/16 01:40:26;;;;;;;7.80;5.15;;;;;;;28.80;35.87;158735.28;1735769;82;21309;-71
2021/04/16 01:42:59;;;;;;;10.08;5.92;;;;;;;28.70;35.97;158708.61;1735874;82;21213;-71
2021/04/16 01:45:32;;;;;;;9.98;6.08;;;;;;;28.64;36.02;158692.66;1722656;82;21690;-71
2021/04/16 01:48:04;;;;;;;8.95;6.20;;;;;;;28.65;36.05;158695.33;1733487;82;21966;-72
2021/04/16 01:50:39;;;;;;;9.10;5.70;;;;;;;28.51;36.18;158658.06;1735551;82;21202;-72
2021/04/16 01:53:12;;;;;;;11.80;6.40;;;;;;;28.45;36.28;158642.13;1736091;82;21194;-72
2021/04/16 01:55:47;;;;;;;10.40;6.72;;;;;;;28.40;36.32;158626.13;1736154;82;21686;-72
2021/04/16 01:58:20;;;;;;;9.23;6.28;;;;;;;28.33;36.43;158608.83;1725254;82;21207;-71
2021/04/16 02:00:53;;;;;;;12.63;7.78;;;;;;;28.31;36.44;158602.19;1730216;82;21206;-71
2021/04/16 02:03:25;;;;;;;12.33;6.78;;;;;;;28.25;36.52;158587.55;1715967;82;21271;-71
2021/04/16 02:05:59;;;;;;;11.03;5.92;;;;;;;28.17;36.58;158564.87;1736355;82;21380;-71
2021/04/16 02:08:32;;;;;;;9.03;6.22;;;;;;;28.11;36.73;158550.23;1735802;82;21203;-72
2021/04/16 02:11:04;;;;;;;9.53;6.35;;;;;;;28.08;36.80;158540.94;1706642;84;21326;-71
2021/04/16 02:13:38;;;;;;;10.08;6.35;;;;;;;28.11;36.74;158548.94;1710846;82;21741;-72
2021/04/16 02:16:10;;;;;;;10.58;6.50;;;;;;;28.09;36.78;158544.91;1730055;82;21186;-71
2021/04/16 02:18:44;;;;;;;11.75;6.47;;;;;;;28.07;36.78;158539.58;1735839;82;21190;-71
2021/04/16 02:21:17;;;;;;;9.23;6.12;;;;;;;28.05;36.89;158532.94;1736231;82;21380;-71
2021/04/16 02:23:49;;;;;;;11.78;6.78;;;;;;;28.11;36.80;158548.94;1727030;82;21241;-72
2021/04/16 02:26:21;;;;;;;9.35;5.42;;;;;;;28.09;36.86;158544.91;1751321;81;21202;-72
2021/04/16 02:28:54;;;;;;;8.15;5.12;;;;;;;28.13;36.87;158555.56;1693317;84;21197;-72
2021/04/16 02:31:26;;;;;;;6.80;4.62;;;;;;;28.08;36.97;158542.25;1700571;84;21746;-71
2021/04/16 02:33:58;;;;;;;5.20;3.85;;;;;;;28.02;37.00;158526.30;1720764;82;21178;-70
2021/04/16 02:36:31;;;;;;;7.72;4.12;;;;;;;28.00;36.94;158519.66;1712586;84;21328;-71
2021/04/16 02:39:05;;;;;;;6.97;3.77;;;;;;;27.78;37.20;158462.45;1711141;84;21891;-73
2021/04/16 02:41:37;;;;;;;4.85;3.60;;;;;;;27.73;37.31;158449.13;1708268;84;21304;-71
2021/04/16 02:44:10;;;;;;;6.95;4.35;;;;;;;27.67;37.37;158431.84;1710882;84;21215;-71
2021/04/16 02:46:42;;;;;;;4.90;3.83;;;;;;;27.59;37.51;158410.53;1713448;84;21396;-72
2021/04/16 02:49:16;;;;;;;5.53;3.67;;;;;;;27.51;37.60;158389.27;1727774;82;21242;-71
2021/04/16 02:51:49;;;;;;;6.17;3.98;;;;;;;27.48;37.53;158379.97;1709129;84;21340;-70
2021/04/16 02:54:21;;;;;;;5.08;3.72;;;;;;;27.43;37.63;158367.95;1701309;84;21235;-70
2021/04/16 02:56:55;;;;;;;5.75;4.97;;;;;;;27.34;37.80;158344.03;1711727;84;21318;-71
2021/04/16 02:59:30;;;;;;;6.20;4.35;;;;;;;27.45;37.72;158371.98;1713344;84;21385;-71
2021/04/16 03:02:01;;;;;;;8.05;4.25;;;;;;;27.39;37.69;158356.00;1709057;84;21319;-71
2021/04/16 03:04:36;;;;;;;7.22;4.97;;;;;;;27.37;37.74;158350.72;1730710;82;21309;-72
2021/04/16 03:07:08;;;;;;;8.23;5.37;;;;;;;27.31;37.78;158336.09;1749576;82;21868;-72
2021/04/16 03:09:40;;;;;;;9.63;5.78;;;;;;;27.31;37.84;158334.73;1712774;84;21230;-72
2021/04/16 03:12:13;;;;;;;9.68;6.17;;;;;;;27.27;37.90;158325.45;1716362;82;21953;-71
2021/04/16 03:14:46;;;;;;;8.50;5.85;;;;;;;27.22;37.90;158310.81;1711811;84;21255;-71
2021/04/16 03:17:18;;;;;;;5.87;4.45;;;;;;;27.16;37.96;158294.84;1711783;84;21214;-71
2021/04/16 03:19:51;;;;;;;6.62;4.97;;;;;;;27.11;38.04;158281.58;1708090;84;21187;-71
2021/04/16 03:22:23;;;;;;;7.70;5.28;;;;;;;27.13;38.07;158286.91;1712685;84;21265;-72
2021/04/16 03:24:56;;;;;;;8.50;5.33;;;;;;;27.15;38.08;158293.53;1711329;84;21373;-71
2021/04/16 03:27:28;;;;;;;7.45;4.70;;;;;;;27.09;38.16;158277.56;1707100;82;21392;-72
2021/04/16 03:30:00;;;;;;;8.68;5.58;;;;;;;27.05;38.25;158266.95;1738996;82;21230;-71
2021/04/16 03:32:32;;;;;;;9.68;4.95;;;;;;;27.00;38.33;158252.28;1729932;81;21210;-74
2021/04/16 03:35:06;;;;;;;6.70;4.65;;;;;;;26.96;38.44;158241.64;1737333;81;21759;-72
2021/04/16 03:37:39;;;;;;;8.30;4.75;;;;;;;26.99;38.48;158249.63;1733482;82;21210;-73
2021/04/16 03:40:15;;;;;;;6.67;5.00;;;;;;;26.96;38.56;158243.00;1735214;82;22307;-75
2021/04/16 03:42:48;;;;;;;6.87;4.45;;;;;;;26.99;38.50;158249.63;1733630;82;21246;-74
2021/04/16 03:45:21;;;;;;;6.78;4.62;;;;;;;26.99;38.69;158250.94;1733847;82;21575;-72
2021/04/16 03:47:53;;;;;;;9.00;5.10;;;;;;;27.00;38.68;158253.59;1734333;82;21198;-73
2021/04/16 03:50:30;;;;;;;7.80;4.70;;;;;;;27.01;38.60;158256.25;1732739;82;21298;-72
2021/04/16 03:53:02;;;;;;;9.35;5.03;;;;;;;27.04;38.61;158264.30;1726248;82;21935;-73
2021/04/16 03:55:37;;;;;;;7.05;4.25;;;;;;;27.02;38.60;158258.97;1739414;81;21178;-73
2021/04/16 03:58:12;;;;;;;8.90;4.95;;;;;;;26.97;38.67;158245.59;1733432;82;21429;-77
2021/04/16 04:00:44;;;;;;;6.25;4.50;;;;;;;26.95;38.76;158240.33;1731966;82;21218;-71
2021/04/16 04:03:16;;;;;;;8.88;4.83;;;;;;;26.93;38.92;158235.00;1721184;82;21230;-70
2021/04/16 04:05:49;;;;;;;7.72;4.60;;;;;;;27.06;38.81;158269.63;1724655;82;21318;-69
2021/04/16 04:08:22;;;;;;;6.95;4.65;;;;;;;27.07;38.81;158272.28;1737284;82;21701;-70
2021/04/16 04:10:55;;;;;;;7.90;4.55;;;;;;;27.10;38.78;158280.22;1738558;82;21273;-70
2021/04/16 04:13:27;;;;;;;6.45;4.33;;;;;;;27.13;38.84;158288.22;1735994;82;21348;-70
2021/04/16 04:16:01;;;;;;;6.67;3.92;;;;;;;27.20;38.88;158305.50;1713953;82;21191;-70
2021/04/16 04:18:34;;;;;;;5.62;4.05;;;;;;;27.27;38.76;158325.45;1737090;82;21844;-70
2021/04/16 04:21:06;;;;;;;7.30;4.47;;;;;;;27.41;38.61;158361.33;1711948;82;21777;-72
2021/04/16 04:23:39;;;;;;;6.15;3.90;;;;;;;27.46;38.61;158375.95;1706206;82;21372;-71
2021/04/16 04:26:11;;;;;;;6.30;4.00;;;;;;;27.53;38.67;158395.91;1702616;82;21203;-70
2021/04/16 04:28:43;;;;;;;5.62;3.77;;;;;;;27.68;38.59;158434.50;1731000;82;21190;-69
2021/04/16 04:31:15;;;;;;;5.05;3.60;;;;;;;27.75;38.42;158453.16;1730066;82;21688;-73
2021/04/16 04:33:48;;;;;;;5.67;3.90;;;;;;;27.75;38.34;158453.16;1732439;82;21311;-73
2021/04/16 04:36:20;;;;;;;7.00;4.20;;;;;;;27.79;38.24;158463.75;1737926;82;21187;-72
2021/04/16 04:38:54;;;;;;;5.00;3.87;;;;;;;27.88;37.95;158487.75;1713920;82;21197;-72
2021/04/16 04:41:27;;;;;;;9.53;3.80;;;;;;;28.01;37.66;158523.64;1715099;82;21328;-74
2021/04/16 04:44:00;;;;;;;5.12;3.92;;;;;;;28.07;37.52;158538.27;1709812;82;21231;-72
2021/04/16 04:46:32;;;;;;;5.92;4.00;;;;;;;28.09;37.41;158543.59;1725655;82;21325;-74
2021/04/16 04:49:06;;;;;;;6.05;3.40;;;;;;;28.04;37.45;158531.63;1699391;84;21221;-73
2021/04/16 04:51:39;;;;;;;7.53;4.40;;;;;;;28.01;37.38;158522.33;1718319;82;21871;-74
2021/04/16 04:54:11;;;;;;;6.97;4.10;;;;;;;28.04;37.21;158530.28;1681712;85;21171;-73
2021/04/16 04:56:43;;;;;;;5.62;3.67;;;;;;;27.97;37.32;158512.97;1692712;84;22472;-74
2021/04/16 04:59:16;;;;;;;7.35;4.17;;;;;;;28.00;37.29;158520.97;1723676;82;21273;-75
2021/04/16 05:01:48;;;;;;;6.50;4.15;;;;;;;28.05;37.22;158532.94;1711228;83;21230;-74
2021/04/16 05:04:21;;;;;;;6.40;4.45;;;;;;;27.99;37.12;158517.00;1724320;82;21320;-75
2021/04/16 05:06:55;;;;;;;5.60;4.00;;;;;;;27.99;37.09;158517.00;1733335;82;21883;-72
2021/04/16 05:09:27;;;;;;;6.25;4.10;;;;;;;28.00;36.99;158519.66;1730704;82;21370;-71
2021/04/16 05:12:01;;;;;;;5.50;3.80;;;;;;;27.97;37.10;158511.67;1731360;82;21235;-72
2021/04/16 05:14:33;;;;;;;4.83;3.77;;;;;;;27.95;37.18;158507.66;1730568;82;21747;-73
2021/04/16 05:17:08;;;;;;;6.72;3.87;;;;;;;28.01;37.16;158522.33;1729818;82;21324;-73
2021/04/16 05:19:41;;;;;;;5.10;4.05;;;;;;;28.07;37.12;158539.58;1734392;82;21388;-74
2021/04/16 05:22:16;;;;;;;12.25;4.08;;;;;;;28.11;37.15;158550.23;1735478;82;21531;-73
2021/04/16 05:24:49;;;;;;;5.72;3.85;;;;;;;28.17;37.26;158564.87;1680893;84;21375;-73
2021/04/16 05:27:24;;;;;;;5.33;3.40;;;;;;;28.15;37.25;158560.91;1735253;81;21386;-73
2021/04/16 05:29:57;;;;;;;6.70;3.55;;;;;;;28.25;37.42;158586.19;1754024;81;21353;-77
2021/04/16 05:32:30;;;;;;;6.47;3.27;;;;;;;28.39;37.06;158623.45;1763160;80;21408;-75
2021/04/16 05:35:04;;;;;;;4.95;3.47;;;;;;;28.38;36.89;158622.16;1770093;80;21372;-75
2021/04/16 05:37:37;;;;;;;5.60;4.00;;;;;;;28.25;36.88;158586.19;1760612;80;21239;-76
2021/04/16 05:40:10;;;;;;;5.30;3.72;;;;;;;28.22;37.06;158579.50;1758282;80;21369;-75
2021/04/16 05:42:43;;;;;;;6.03;4.05;;;;;;;28.19;37.08;158570.20;1755315;81;21375;-75
2021/04/16 05:45:16;;;;;;;4.90;3.47;;;;;;;28.15;37.20;158560.91;1752048;81;21366;-70
2021/04/16 05:47:50;;;;;;;4.08;3.17;;;;;;;28.13;37.15;158554.22;1756396;81;22388;-71
2021/04/16 05:50:22;;;;;;;4.65;3.17;;;;;;;28.08;36.94;158540.94;1762933;81;21238;-71
2021/04/16 05:52:55;;;;;;;4.53;3.67;;;;;;;27.99;37.01;158517.00;1761995;81;21999;-78
2021/04/16 05:55:27;;;;;;;5.17;3.52;;;;;;;27.88;37.08;158487.75;1761980;81;21317;-74
2021/04/16 05:58:00;;;;;;;6.53;3.55;;;;;;;27.85;37.30;158481.06;1750998;81;22003;-71
2021/04/16 06:00:33;;;;;;;6.40;3.45;;;;;;;27.94;37.36;158505.03;1736498;81;21266;-72
2021/04/16 06:03:05;;;;;;;6.85;3.72;;;;;;;27.98;37.49;158514.34;1743830;82;21233;-71
2021/04/16 06:05:38;;;;;;;5.97;3.55;;;;;;;28.11;37.32;158550.23;1770272;81;21732;-72
2021/04/16 06:08:11;;;;;;;5.58;4.03;;;;;;;28.14;37.12;158558.23;1769081;81;21736;-74
2021/04/16 06:10:43;;;;;;;9.20;3.35;;;;;;;28.14;37.25;158556.88;1765055;80;21512;-72
2021/04/16 06:13:16;;;;;;;4.08;3.30;;;;;;;28.24;37.14;158584.87;1764088;81;21285;-75
2021/04/16 06:15:52;;;;;;;5.87;3.35;;;;;;;28.33;37.09;158608.83;1775040;79;21210;-74
2021/04/16 06:18:24;;;;;;;4.80;3.40;;;;;;;28.39;37.18;158623.45;1780139;79;21260;-78
2021/04/16 06:20:57;;;;;;;4.72;3.77;;;;;;;28.35;37.18;158614.16;1774438;79;21229;-76
2021/04/16 06:23:29;;;;;;;5.53;3.45;;;;;;;28.24;37.36;158583.58;1788457;79;21147;-70
2021/04/16 06:26:03;;;;;;;5.50;4.17;;;;;;;28.06;37.71;158535.61;1782196;79;21330;-74
2021/04/16 06:28:36;;;;;;;6.12;3.62;;;;;;;27.94;37.89;158505.03;1776136;79;21249;-69
2021/04/16 06:31:09;;;;;;;5.45;4.28;;;;;;;27.88;37.85;158489.05;1777669;79;21253;-73
2021/04/16 06:33:42;;;;;;;6.10;3.80;;;;;;;27.75;38.24;158454.47;1787267;79;21167;-72
2021/04/16 06:36:19;;;;;;;7.70;4.62;;;;;;;27.64;38.23;158423.91;1790037;79;21198;-73
2021/04/16 06:38:52;;;;;;;5.12;3.62;;;;;;;27.54;38.55;158397.25;1784178;79;21397;-73
2021/04/16 06:41:31;;;;;;;6.15;3.87;;;;;;;27.59;38.62;158410.53;1759538;79;21169;-74
2021/04/16 06:44:11;;;;;;;5.03;4.28;;;;;;;27.54;38.56;158397.25;1787578;79;21284;-84
2021/04/16 06:46:48;;;;;;;4.37;3.60;;;;;;;27.41;38.59;158361.33;1776986;79;21166;-75
2021/04/16 06:49:27;;;;;;;7.05;3.95;;;;;;;27.41;38.91;158362.69;1790508;79;21229;-82
2021/04/16 06:52:26;;;;;;;4.53;3.42;;;;;;;27.55;38.77;158401.23;1801767;79;21419;-73
2021/04/16 06:55:06;;;;;;;5.50;3.65;;;;;;;27.71;38.37;158442.50;1775354;79;21349;-74
2021/04/16 06:57:51;;;;;;;7.53;3.57;;;;;;;27.86;38.20;158483.72;1775902;79;21928;-73
2021/04/16 07:00:52;;;;;;;6.00;4.20;;;;;;;27.96;38.15;158510.31;1770693;79;21578;-74
2021/04/16 07:03:28;;;;;;;;;;;;;;;28.09;38.12;158544.91;1775366;79;21733;-74
2021/04/16 07:06:22;;;;;;;5.72;3.95;;;;;;;28.26;37.72;158588.86;1752768;81;20299;-74
2021/04/16 07:09:06;;;;;;;7.33;4.12;;;;;;;28.27;37.91;158592.88;1753904;81;21234;-73
2021/04/16 07:11:45;;;;;;;4.20;3.55;;;;;;;28.22;37.88;158579.50;1717720;81;21714;-76
2021/04/16 07:14:39;;;;;;;7.03;4.05;;;;;;;28.11;37.85;158550.23;1764709;81;21173;-72
2021/04/16 07:17:19;;;;;;;6.17;4.50;;;;;;;28.27;37.57;158592.88;1761524;80;21238;-76
2021/04/16 07:19:53;;;;;;;6.35;4.30;;;;;;;28.36;37.54;158616.81;1774334;80;21309;-73
2021/04/16 07:22:46;;;;;;;5.05;4.15;;;;;;;28.37;39.83;158618.12;1777307;79;21209;-75
2021/04/16 07:25:42;;;;;;;4.90;4.12;;;;;;;28.33;39.81;158608.83;1763671;80;21317;-75
2021/04/16 07:28:31;;;;;;;6.12;4.25;;;;;;;28.37;39.53;158619.48;1757781;80;21380;-74
2021/04/16 07:31:27;;;;;;;5.42;4.62;;;;;;;28.32;39.05;158604.84;1779531;77;21170;-72
2021/04/16 07:34:00;;;;;;;5.55;4.30;;;;;;;28.45;39.66;158640.75;1733782;78;21912;-74
2021/04/16 07:36:42;;;;;;;7.78;4.70;;;;;;;28.65;38.83;158693.97;1809154;79;21740;-74
2021/04/16 07:39:19;;;;;;;5.05;3.77;;;;;;;28.71;38.90;158711.28;1812469;79;21321;-73
2021/04/16 07:41:59;;;;;;;5.92;4.45;;;;;;;28.80;38.48;158735.28;1808112;79;21213;-73
2021/04/16 07:44:34;;;;;;;6.62;4.37;;;;;;;28.85;38.75;158747.31;1782101;79;21242;-70
2021/04/16 07:47:19;;;;;;;6.28;4.62;;;;;;;28.90;38.93;158760.58;1789382;79;21312;-72
2021/04/16 07:50:15;;;;;;;7.90;5.17;;;;;;;28.87;38.80;158753.94;1780041;79;21166;-71
2021/04/16 07:52:49;;;;;;;6.45;4.40;;;;;;;28.71;38.02;158711.28;1812767;79;21706;-72
2021/04/16 07:55:25;;;;;;;5.83;4.83;;;;;;;28.52;38.48;158660.72;1795694;79;21378;-73
2021/04/16 07:58:19;;;;;;;6.33;4.87;;;;;;;28.38;38.19;158620.78;1756269;80;21263;-72
2021/04/16 08:00:52;;;;;;;8.33;4.70;;;;;;;28.40;38.15;158627.48;1739747;79;21261;-72
2021/04/16 08:03:27;;;;;;;6.72;4.55;;;;;;;28.43;38.28;158635.44;1765753;80;21324;-71
2021/04/16 08:06:00;;;;;;;7.20;5.37;;;;;;;28.51;38.30;158658.06;1764181;81;21473;-74
2021/04/16 08:08:34;;;;;;;7.55;5.30;;;;;;;28.59;38.25;158678.03;1766626;81;21266;-69
2021/04/16 08:11:12;;;;;;;7.95;5.87;;;;;;;28.66;37.93;158698.00;1768734;80;21261;-74
2021/04/16 08:13:51;;;;;;;9.53;6.08;;;;;;;28.70;37.75;158707.31;1786579;79;21206;-71
2021/04/16 08:16:36;;;;;;;10.72;7.33;;;;;;;29.55;36.22;158935.06;1783178;79;21243;-73
2021/04/16 08:19:17;;;;;;;14.85;9.13;;;;;;;29.45;36.63;158909.75;1792468;79;21175;-69
2021/04/16 08:21:58;;;;;;;11.83;6.62;;;;;;;30.85;35.48;159284.27;1786263;79;21253;-70
2021/04/16 08:24:51;;;;;;;9.33;5.87;;;;;;;31.59;34.17;159481.72;1805608;79;21780;-71
2021/04/16 08:27:56;;;;;;;18.55;8.50;;;;;;;29.83;36.60;159010.97;1809003;79;21325;-70
2021/04/16 08:31:01;;;;;;;12.98;6.58;;;;;;;29.76;37.05;158992.34;1809437;77;21725;-71
2021/04/16 08:33:48;;;;;;;10.23;6.90;;;;;;;29.59;37.50;158945.73;1783412;79;21364;-74
2021/04/16 08:36:37;;;;;;;8.10;5.45;;;;;;;29.49;38.32;158919.09;1795443;79;21710;-70
2021/04/16 08:39:32;;;;;;;9.75;7.28;;;;;;;29.41;37.94;158897.77;1796897;79;21355;-68
2021/04/16 08:42:29;;;;;;;10.32;7.12;;;;;;;29.16;37.94;158829.81;1794709;79;21933;-70
2021/04/16 08:45:11;;;;;;;13.65;6.83;;;;;;;29.01;37.69;158789.86;1785365;79;21191;-73
2021/04/16 08:48:22;;;;;;;10.43;6.08;;;;;;;28.86;38.06;158749.97;1791589;79;21270;-74
2021/04/16 08:51:03;;;;;;;;;;;;;;;28.81;37.75;158738.00;1796336;79;21805;-70
2021/04/16 08:53:35;;;;;;;9.55;6.20;;;;;;;28.68;37.63;158703.33;1797646;79;20257;-70
2021/04/16 08:56:18;;;;;;;7.95;5.40;;;;;;;28.67;37.55;158700.66;1794772;79;21229;-71
2021/04/16 08:58:52;;;;;;;11.38;6.83;;;;;;;28.67;37.66;158699.31;1792713;79;21371;-73
2021/04/16 09:01:33;;;;;;;10.45;6.03;;;;;;;28.64;37.47;158692.66;1792399;79;21320;-71
2021/04/16 09:04:40;;;;;;;8.25;6.03;;;;;;;28.63;37.37;158690.00;1799277;78;21380;-72
2021/04/16 09:07:30;;;;;;;10.45;6.25;;;;;;;28.70;37.27;158708.61;1805624;78;21369;-73
2021/04/16 09:10:06;;;;;;;7.28;5.60;;;;;;;29.33;36.91;158876.42;1781963;79;22365;-67
2021/04/16 09:12:45;;;;;;;10.32;5.22;;;;;;;28.67;37.16;158699.31;1792016;79;21243;-70
2021/04/16 09:15:32;;;;;;;6.92;5.37;;;;;;;28.64;37.62;158692.66;1793152;79;21220;-72
2021/04/16 09:18:12;;;;;;;7.28;5.50;;;;;;;28.69;37.44;158704.64;1782298;79;21284;-73
2021/04/16 09:20:50;;;;;;;9.20;7.23;;;;;;;28.70;37.83;158708.61;1792755;79;21332;-72
2021/04/16 09:23:38;;;;;;;7.72;5.55;;;;;;;28.74;37.42;158717.97;1790197;79;21210;-71
2021/04/16 09:26:11;;;;;;;8.20;5.58;;;;;;;28.75;37.57;158721.94;1793191;79;21316;-72
2021/04/16 09:28:56;;;;;;;7.45;5.15;;;;;;;28.78;37.18;158729.94;1791771;79;21233;-71
2021/04/16 09:31:50;;;;;;;6.60;5.12;;;;;;;28.72;37.34;158713.94;1793568;79;21760;-75
2021/04/16 09:34:26;;;;;;;6.45;5.00;;;;;;;28.75;37.03;158721.94;1782905;79;21718;-71
2021/04/16 09:37:31;;;;;;;7.45;5.50;;;;;;;28.83;37.24;158743.28;1785574;79;21511;-72
2021/04/16 09:40:08;;;;;;;7.50;5.17;;;;;;;28.93;36.72;158768.58;1757920;79;21799;-73
2021/04/16 09:42:44;;;;;;;6.80;4.95;;;;;;;28.94;36.80;158772.56;1782876;79;21446;-71
2021/04/16 09:45:34;;;;;;;6.00;4.72;;;;;;;29.00;36.39;158787.19;1784542;79;21209;-72
2021/04/16 09:48:19;;;;;;;9.23;5.12;;;;;;;28.99;36.54;158784.58;1790632;79;21391;-72
2021/04/16 09:51:05;;;;;;;7.33;5.33;;;;;;;29.05;36.23;158801.84;1789010;79;21313;-71
2021/04/16 09:53:39;;;;;;;8.08;5.60;;;;;;;29.17;36.50;158832.48;1779566;79;21186;-69
2021/04/16 09:56:18;;;;;;;8.00;5.60;;;;;;;29.09;37.13;158812.50;1782502;79;21356;-71
2021/04/16 09:58:56;;;;;;;6.42;4.85;;;;;;;29.16;37.30;158831.17;1787136;79;21637;-74
2021/04/16 10:01:28;;;;;;;6.00;4.80;;;;;;;29.32;37.23;158873.75;1781970;79;21324;-71
2021/04/16 10:04:07;;;;;;;7.53;4.65;;;;;;;29.43;37.48;158903.09;1788129;79;21379;-74
2021/04/16 10:06:43;;;;;;;5.22;4.28;;;;;;;29.70;36.35;158975.03;1776480;79;21186;-73
2021/04/16 10:09:26;;;;;;;5.17;4.45;;;;;;;29.46;36.23;158911.09;1790078;79;21851;-71
2021/04/16 10:12:21;;;;;;;6.62;5.08;;;;;;;29.54;36.44;158933.75;1785364;79;21379;-74
2021/04/16 10:14:54;;;;;;;5.97;4.87;;;;;;;29.68;36.26;158971.05;1737185;79;21241;-73
2021/04/16 10:17:29;;;;;;;7.42;5.15;;;;;;;29.80;36.45;159002.97;1784231;79;21748;-74
2021/04/16 10:20:12;;;;;;;6.30;4.67;;;;;;;30.06;35.97;159071.00;1757605;79;21405;-71
2021/04/16 10:22:45;;;;;;;6.33;5.00;;;;;;;30.29;35.32;159132.28;1748228;79;21209;-70
2021/04/16 12:39:50;;;;;;;11.95;7.35;;;;;;;31.83;32.75;159545.75;1804905;79;21217;-70
2021/04/16 12:42:24;;;;;;;9.20;7.75;;;;;;;31.66;33.09;159500.37;1775868;79;21938;-69
2021/04/16 12:44:56;;;;;;;10.68;7.25;;;;;;;31.66;33.06;159501.69;1796795;79;21162;-68
2021/04/16 12:47:31;;;;;;;12.40;7.37;;;;;;;31.77;32.79;159529.72;1784741;79;21923;-69
2021/04/16 12:50:06;;;;;;;12.63;8.30;;;;;;;31.72;32.94;159517.72;1791046;79;21380;-68
2021/04/16 12:52:38;;;;;;;13.25;8.93;;;;;;;31.08;33.55;159345.64;1800651;79;21154;-68
2021/04/16 12:55:12;;;;;;;13.65;10.25;;;;;;;31.47;33.57;159450.97;1773488;79;21339;-69
2021/04/16 12:57:47;;;;;;;14.60;10.08;;;;;;;31.79;33.35;159535.06;1766063;80;21325;-69
2021/04/16 13:00:29;;;;;;;16.82;10.88;;;;;;;32.00;33.19;159591.09;1773753;80;21300;-68
2021/04/16 13:03:20;;;;;;;17.00;11.68;;;;;;;32.04;33.16;159601.78;1772483;79;21331;-70
2021/04/16 13:05:53;;;;;;;17.00;11.15;;;;;;;32.19;33.16;159641.81;1775210;80;21225;-71
2021/04/16 13:08:25;;;;;;;16.15;10.80;;;;;;;32.42;32.86;159705.88;1725083;82;21336;-70
2021/04/16 13:10:57;;;;;;;20.23;11.80;;;;;;;32.43;32.94;159707.23;1764847;81;21356;-68
2021/04/16 13:13:29;;;;;;;14.85;11.28;;;;;;;32.27;33.01;159664.52;1756030;81;21807;-68
2021/04/16 13:16:02;;;;;;;15.98;11.55;;;;;;;32.13;33.16;159627.14;1740658;82;21332;-68
2021/04/16 13:18:39;;;;;;;17.37;12.47;;;;;;;30.51;34.96;159193.62;1734083;81;21860;-69
2021/04/16 13:21:31;;;;;;;16.90;11.00;;;;;;;30.21;35.62;159112.28;1741529;80;21404;-70
2021/04/16 13:24:04;;;;;;;14.23;9.53;;;;;;;30.12;35.68;159086.95;1752912;79;21799;-68
2021/04/16 13:26:36;;;;;;;14.40;10.55;;;;;;;30.03;35.79;159062.98;1775573;79;21193;-70
2021/04/16 13:29:09;;;;;;;15.72;10.85;;;;;;;30.07;35.71;159073.66;1749907;81;21321;-68
2021/04/16 13:31:41;;;;;;;15.50;10.13;;;;;;;30.12;35.59;159088.31;1742060;81;21300;-68
2021/04/16 13:34:14;;;;;;;14.18;10.50;;;;;;;30.17;35.55;159100.31;1792109;79;21284;-68
2021/04/16 13:36:47;;;;;;;14.35;10.00;;;;;;;30.20;35.63;159109.63;1778157;79;21284;-68
2021/04/16 13:39:19;;;;;;;15.55;10.05;;;;;;;30.21;35.66;159110.97;1785266;79;21240;-69
2021/04/16 13:41:53;;;;;;;18.23;10.65;;;;;;;30.22;35.66;159114.95;1784253;79;21206;-68
2021/04/16 13:44:26;;;;;;;13.75;9.35;;;;;;;30.25;35.66;159122.97;1766173;79;21351;-69
2021/04/16 13:47:03;;;;;;;18.17;13.58;;;;;;;30.30;35.61;159136.27;1767281;79;21295;-69
2021/04/16 13:49:39;;;;;;;22.67;16.05;;;;;;;30.23;35.89;159116.27;1761723;79;22458;-71
2021/04/16 13:52:12;;;;;;;21.52;15.88;;;;;;;30.25;35.94;159122.97;1778033;78;21409;-70
2021/04/16 13:54:48;;;;;;;17.12;11.33;;;;;;;30.12;36.64;159088.31;1766947;79;21179;-71
2021/04/16 13:57:20;;;;;;;10.95;7.83;;;;;;;29.81;37.61;159005.63;1750506;78;21911;-71
2021/04/16 13:59:52;;;;;;;9.70;7.45;;;;;;;29.51;37.98;158924.44;1782199;78;21364;-69
2021/04/16 14:02:48;;;;;;;11.20;6.15;;;;;;;29.29;37.86;158864.44;1785417;78;21381;-68
2021/04/16 14:05:29;;;;;;;8.30;5.67;;;;;;;29.18;37.49;158836.47;1784920;79;21457;-73
2021/04/16 14:08:02;;;;;;;8.93;5.85;;;;;;;29.14;37.52;158825.84;1775493;79;21163;-72
2021/04/16 14:10:35;;;;;;;9.30;5.55;;;;;;;29.07;37.49;158805.86;1791202;79;21360;-73
2021/04/16 14:13:30;;;;;;;9.53;5.20;;;;;;;28.98;37.66;158783.22;1763631;79;21309;-66
2021/04/16 14:16:13;;;;;;;8.45;5.03;;;;;;;29.01;37.65;158789.86;1756388;81;21368;-72
2021/04/16 14:18:51;;;;;;;6.05;4.70;;;;;;;28.98;37.65;158783.22;1749315;80;21308;-69
2021/04/16 14:21:49;;;;;;;5.70;4.12;;;;;;;28.89;37.69;158759.28;1797100;79;21813;-69
2021/04/16 14:24:26;;;;;;;6.60;4.30;;;;;;;28.80;37.75;158735.28;1779344;78;21372;-71
2021/04/16 14:27:06;;;;;;;5.78;4.58;;;;;;;28.80;37.78;158733.92;1769776;79;21361;-67